Hawaiian Gardens, California
Current Conditions -  °F | °C
As of 6:58 AM on Wednesday 22 Oct 2014 (Local Time) from KSLI Reporting Station
Clear Clear  
Wind Chill: 56°   Ceiling: Unl
Heat Index: 56°   Visibility: 10mi
Dew Point: 55°   Wind: 2mph
Humidity: 97%   Direction: 80°E
Pressure: 29.91"   Gusts: NA
Location:  33.83°N, 118.08°W
Report Text: KSLI 221358Z 08002KT 10SM CLR 13/13 A2991 RMK AO2A SLP131 T01340130
Loading
Personal Weather Stations






























Interactive Weather Map
Tropical Storm Tracking
New forecast layout! Learn more

10-Day Weather Forecast

Advertisements
Track Severe Weather on mobile